createdAt,value
2023-03-03T00:00:23.064Z,20.89
2023-03-03T00:01:22.930Z,21.39
2023-03-03T00:02:22.231Z,22
2023-03-03T00:03:22.935Z,20.5
2023-03-03T00:04:22.158Z,20.20
2023-03-03T00:05:21.745Z,21.39
2023-03-03T00:06:21.727Z,22.79
2023-03-03T00:07:21.832Z,20.79
2023-03-03T00:08:21.676Z,19.60
2023-03-03T00:09:21.867Z,20.60
2023-03-03T00:11:21.684Z,19.70
2023-03-03T00:12:40.857Z,19.10
2023-03-03T00:13:22.112Z,19.79
2023-03-03T00:14:40.564Z,21.20
2023-03-03T00:15:22.111Z,23.10
2023-03-03T00:16:21.818Z,20
2023-03-03T00:17:21.943Z,20.29
2023-03-03T00:18:21.275Z,21.5
2023-03-03T00:19:21.932Z,19.79
2023-03-03T00:20:22.771Z,20.70
2023-03-03T00:21:21.927Z,19.39
2023-03-03T00:22:22.334Z,20
2023-03-03T00:23:21.676Z,20.39
2023-03-03T00:24:22.078Z,21.29
2023-03-03T00:25:21.624Z,20.89
2023-03-03T00:26:21.463Z,20.29
2023-03-03T00:27:21.716Z,21.20
2023-03-03T00:28:21.575Z,20.5
2023-03-03T00:29:22.335Z,22
2023-03-03T00:30:22.239Z,19
2023-03-03T00:31:21.939Z,21.10
2023-03-03T00:32:21.906Z,18.79
2023-03-03T00:33:21.659Z,20
2023-03-03T00:34:21.633Z,20.10
2023-03-03T00:35:21.526Z,21.79
2023-03-03T00:36:21.536Z,21.29
2023-03-03T00:37:22.046Z,20
2023-03-03T00:38:21.690Z,20.60
2023-03-03T00:39:22.029Z,19.89
2023-03-03T00:40:21.436Z,20
2023-03-03T00:41:22.259Z,20.39
2023-03-03T00:43:21.682Z,22.60
2023-03-03T00:44:21.201Z,23
2023-03-03T00:45:21.778Z,21.39
2023-03-03T00:46:21.908Z,21
2023-03-03T00:47:21.253Z,19.79
2023-03-03T00:48:21.778Z,20.60
2023-03-03T00:49:21.868Z,20.89
2023-03-03T00:50:21.671Z,20
2023-03-03T00:51:21.587Z,21.5
2023-03-03T00:52:21.578Z,21.10
2023-03-03T00:53:20.017Z,21.39
2023-03-03T00:54:21.486Z,21.5
2023-03-03T00:55:21.636Z,22.70
2023-03-03T00:56:21.444Z,21.60
2023-03-03T00:57:22.127Z,23.79
2023-03-03T00:58:21.699Z,21.89
2023-03-03T00:59:21.698Z,23.20
2023-03-03T01:00:21.848Z,22.29
2023-03-03T01:01:24.128Z,21.89
2023-03-03T01:02:22.572Z,20.29
2023-03-03T01:03:21.747Z,22.5
2023-03-03T01:04:20.977Z,22.39
2023-03-03T01:05:21.701Z,23.5
2023-03-03T01:06:21.250Z,22.79
2023-03-03T01:07:21.644Z,21
2023-03-03T01:08:22.059Z,24
2023-03-03T01:09:21.216Z,21.39
2023-03-03T01:10:21.616Z,21.20
2023-03-03T01:11:21.746Z,23.60
2023-03-03T01:13:21.580Z,20.89
2023-03-03T01:14:22.080Z,22.70
2023-03-03T01:15:21.926Z,23.5
2023-03-03T01:16:22.109Z,21.89
2023-03-03T01:17:20.872Z,23.70
2023-03-03T01:18:21.458Z,23.29
2023-03-03T01:19:21.666Z,21.89
2023-03-03T01:20:22.098Z,22.5
2023-03-03T01:21:21.570Z,23.70
2023-03-03T01:22:21.663Z,23
2023-03-03T01:23:21.677Z,24.20
2023-03-03T01:24:21.797Z,24.39
2023-03-03T01:25:21.626Z,23.89
2023-03-03T01:27:21.612Z,23.70
2023-03-03T01:28:21.548Z,23.29
2023-03-03T01:29:21.894Z,23
2023-03-03T01:30:21.898Z,22.89
2023-03-03T01:31:21.249Z,23.89
2023-03-03T01:32:22.190Z,22.79
2023-03-03T01:33:21.388Z,23.79
2023-03-03T01:34:21.857Z,24.10
2023-03-03T01:35:22.420Z,23.29
2023-03-03T01:36:21.817Z,24
2023-03-03T01:37:22.238Z,25.29
2023-03-03T01:38:21.302Z,24.20
2023-03-03T01:39:22.017Z,24.5
2023-03-03T01:40:22.134Z,25.79
2023-03-03T01:41:21.499Z,24.70
2023-03-03T01:42:21.832Z,25.29
2023-03-03T01:43:21.001Z,24.10
2023-03-03T01:44:21.665Z,25.70
2023-03-03T01:45:22.339Z,25.39
2023-03-03T01:46:21.648Z,25.10
2023-03-03T01:47:21.856Z,25.79
2023-03-03T01:48:21.444Z,26.10
2023-03-03T01:49:21.656Z,24.70
2023-03-03T01:50:22.402Z,27.20
2023-03-03T01:51:21.864Z,26.20
2023-03-03T01:52:21.420Z,27.89
2023-03-03T01:53:20.859Z,24.89
2023-03-03T01:54:21.222Z,26.70
2023-03-03T01:55:21.662Z,27.10
2023-03-03T01:56:21.769Z,26.10
2023-03-03T01:57:21.880Z,26.60
2023-03-03T01:58:21.590Z,26.70
2023-03-03T01:59:22.088Z,27.5
2023-03-03T02:00:22.812Z,24.79
2023-03-03T02:01:22.695Z,26.5
2023-03-03T02:02:21.908Z,27.39
2023-03-03T02:03:22.370Z,25.60
2023-03-03T02:04:21.727Z,27.20
2023-03-03T02:05:22.622Z,28.5
2023-03-03T02:06:21.558Z,25.70
2023-03-03T02:07:21.901Z,25.79
2023-03-03T02:08:22.330Z,28.10
2023-03-03T02:09:22.316Z,28
2023-03-03T02:10:21.910Z,29.39
2023-03-03T02:11:21.991Z,27.29
2023-03-03T02:12:21.742Z,26.29
2023-03-03T02:13:21.620Z,26.79
2023-03-03T02:14:21.690Z,26.5
2023-03-03T02:15:22.072Z,28.39
2023-03-03T02:17:21.853Z,26.79
2023-03-03T02:18:22.087Z,26.60
2023-03-03T02:19:21.631Z,27.5
2023-03-03T02:20:22.612Z,30.29
2023-03-03T02:21:21.894Z,29.10
2023-03-03T02:22:21.605Z,28.70
2023-03-03T02:23:22.601Z,26.79
2023-03-03T02:24:21.920Z,26.5
2023-03-03T02:25:21.881Z,30.39
2023-03-03T02:26:21.802Z,28.60
2023-03-03T02:27:22.160Z,28.89
2023-03-03T02:28:21.561Z,28.60
2023-03-03T02:29:22.174Z,31.29
2023-03-03T02:30:22.152Z,28.60
2023-03-03T02:31:21.736Z,32
2023-03-03T02:32:21.965Z,31.29
2023-03-03T02:33:21.620Z,30.60
2023-03-03T02:34:21.198Z,29
2023-03-03T02:35:21.700Z,28.5
2023-03-03T02:36:21.919Z,32.09
2023-03-03T02:37:21.583Z,29.5
2023-03-03T02:38:21.291Z,30.10
2023-03-03T02:39:21.865Z,28.79
2023-03-03T02:40:21.179Z,31.10
2023-03-03T02:41:21.219Z,28.89
2023-03-03T02:42:21.264Z,28.10
2023-03-03T02:43:21.123Z,30.20
2023-03-03T02:44:21.634Z,29.89
2023-03-03T02:45:21.891Z,27.60
2023-03-03T02:46:21.107Z,28.5
2023-03-03T02:47:20.987Z,27.89
2023-03-03T02:48:21.534Z,30.10
2023-03-03T02:49:21.455Z,31.5
2023-03-03T02:50:21.850Z,32.09
2023-03-03T02:51:21.699Z,34.20
2023-03-03T02:52:21.659Z,31
2023-03-03T02:53:21.946Z,32.5
2023-03-03T02:55:21.519Z,34.40
2023-03-03T02:56:21.877Z,36.5
2023-03-03T02:57:21.269Z,39
2023-03-03T02:58:21.409Z,37.59
2023-03-03T02:59:21.586Z,41.5
2023-03-03T03:00:22.965Z,38.40
2023-03-03T03:01:22.396Z,41.09
2023-03-03T03:02:21.551Z,41
2023-03-03T03:03:22.009Z,44.29
2023-03-03T03:04:22.349Z,40.29
2023-03-03T03:05:21.473Z,39.90
2023-03-03T03:06:21.038Z,41.70
2023-03-03T03:07:21.341Z,45.20
2023-03-03T03:08:21.440Z,43.90
2023-03-03T03:09:21.563Z,41.40
2023-03-03T03:10:21.811Z,44.40
2023-03-03T03:11:21.277Z,41.90
2023-03-03T03:12:22.127Z,43.59
2023-03-03T03:13:21.595Z,48.5
2023-03-03T03:14:22.045Z,45.5
2023-03-03T03:15:21.954Z,45.40
2023-03-03T03:16:22.193Z,46.79
2023-03-03T03:17:21.785Z,46.20
2023-03-03T03:18:21.454Z,44.29
2023-03-03T03:19:21.684Z,46.5
2023-03-03T03:20:21.436Z,48.20
2023-03-03T03:21:22.289Z,45.5
2023-03-03T03:22:21.614Z,45.70
2023-03-03T03:23:21.402Z,46.5
2023-03-03T03:24:21.789Z,47.40
2023-03-03T03:25:22.347Z,49.20
2023-03-03T03:26:21.909Z,51.20
2023-03-03T03:27:21.213Z,51.5
2023-03-03T03:28:21.038Z,50.40
2023-03-03T03:29:20.933Z,49.79
2023-03-03T03:31:21.394Z,50.29
2023-03-03T03:32:21.633Z,52.40
2023-03-03T03:33:21.593Z,55.29
2023-03-03T03:34:22.067Z,54
2023-03-03T03:35:21.756Z,55.79
2023-03-03T03:36:21.493Z,56.20
2023-03-03T03:37:21.943Z,55.90
2023-03-03T03:38:21.177Z,63.70
2023-03-03T03:39:21.817Z,56
2023-03-03T03:40:21.961Z,58.5
2023-03-03T03:41:21.753Z,61.40
2023-03-03T03:42:21.580Z,57
2023-03-03T03:43:21.761Z,57.79
2023-03-03T03:44:21.419Z,59.09
2023-03-03T03:45:22.032Z,61.79
2023-03-03T03:46:21.462Z,61.29
2023-03-03T03:47:21.980Z,59.40
2023-03-03T03:48:21.851Z,62.70
2023-03-03T03:49:21.172Z,63.20
2023-03-03T03:50:22.100Z,66.09
2023-03-03T03:51:21.884Z,69.5
2023-03-03T03:52:21.429Z,69.09
2023-03-03T03:53:22.167Z,63.79
2023-03-03T03:54:21.624Z,64.40
2023-03-03T03:55:22.174Z,65.80
2023-03-03T03:56:21.759Z,64.30
2023-03-03T03:57:22.209Z,71
2023-03-03T03:58:21.834Z,65.5
2023-03-03T03:59:21.898Z,66.09
2023-03-03T04:00:23.120Z,69.5
2023-03-03T04:01:21.808Z,67.40
2023-03-03T04:02:22.175Z,69
2023-03-03T04:03:22.281Z,67.80
2023-03-03T04:04:21.636Z,67.90
2023-03-03T04:05:22.219Z,70.59
2023-03-03T04:06:21.672Z,76.40
2023-03-03T04:07:22.244Z,76.09
2023-03-03T04:08:21.801Z,74.90
2023-03-03T04:09:21.803Z,69.59
2023-03-03T04:10:21.953Z,73
2023-03-03T04:11:22.514Z,69.80
2023-03-03T04:12:22.114Z,67.80
2023-03-03T04:13:21.810Z,67.40
2023-03-03T04:14:22.044Z,71.40
2023-03-03T04:15:21.808Z,77
2023-03-03T04:16:21.944Z,77.69
2023-03-03T04:17:21.511Z,72.30
2023-03-03T04:18:21.763Z,68.5
2023-03-03T04:19:21.946Z,71
2023-03-03T04:20:21.854Z,68.40
2023-03-03T04:21:22.232Z,71.90
2023-03-03T04:22:21.646Z,68.69
2023-03-03T04:23:21.349Z,76.30
2023-03-03T04:24:21.880Z,73.69
2023-03-03T04:25:21.866Z,68.80
2023-03-03T04:26:22.072Z,73.19
2023-03-03T04:27:21.246Z,67
2023-03-03T04:28:21.233Z,67.69
2023-03-03T04:29:21.445Z,67.19
2023-03-03T04:30:22.126Z,64.80
2023-03-03T04:31:22.594Z,68.59
2023-03-03T04:32:22.065Z,69.59
2023-03-03T04:33:21.799Z,75.69
2023-03-03T04:34:26.435Z,70.59
2023-03-03T04:35:21.578Z,75.59
2023-03-03T04:36:21.123Z,75.5
2023-03-03T04:37:21.602Z,69.90
2023-03-03T04:38:21.520Z,70.30
2023-03-03T04:39:21.734Z,70
2023-03-03T04:40:21.769Z,77.69
2023-03-03T04:41:21.623Z,72.30
2023-03-03T04:43:21.916Z,60.79
2023-03-03T04:44:21.589Z,66.69
2023-03-03T04:45:22.732Z,66.5
2023-03-03T04:46:21.466Z,68.90
2023-03-03T04:47:21.877Z,63.59
2023-03-03T04:48:22.012Z,72.5
2023-03-03T04:49:21.862Z,65.80
2023-03-03T04:50:21.867Z,61.09
2023-03-03T04:51:22.364Z,63.20
2023-03-03T04:52:21.942Z,62.70
2023-03-03T04:53:21.647Z,69.69
2023-03-03T04:54:22.067Z,66
2023-03-03T04:55:21.672Z,67.30
2023-03-03T04:56:21.506Z,74
2023-03-03T04:57:21.798Z,65.80
2023-03-03T04:58:21.169Z,76.40
2023-03-03T04:59:21.692Z,67.30
2023-03-03T05:00:23.215Z,65.90
2023-03-03T05:01:21.809Z,70.30
2023-03-03T05:02:21.913Z,73.5
2023-03-03T05:03:20.915Z,67.80
2023-03-03T05:04:22.180Z,72.80
2023-03-03T05:05:22.063Z,82.40
2023-03-03T05:06:21.857Z,66.80
2023-03-03T05:07:21.642Z,75.30
2023-03-03T05:08:21.432Z,81.69
2023-03-03T05:09:21.790Z,87.09
2023-03-03T05:10:22.489Z,78.80
2023-03-03T05:11:21.762Z,70.90
2023-03-03T05:12:21.665Z,74.19
2023-03-03T05:13:21.372Z,70.59
2023-03-03T05:14:21.737Z,69.40
2023-03-03T05:15:22.064Z,68.19
2023-03-03T05:16:21.675Z,77.90
2023-03-03T05:17:22.115Z,69.5
2023-03-03T05:18:21.676Z,74.59
2023-03-03T05:19:21.669Z,74.09
2023-03-03T05:20:21.810Z,71.59
2023-03-03T05:21:21.379Z,72.69
2023-03-03T05:22:21.391Z,74.59
2023-03-03T05:23:21.703Z,73.90
2023-03-03T05:24:21.955Z,69.5
2023-03-03T05:25:22.228Z,73.5
2023-03-03T05:26:21.615Z,76.40
2023-03-03T05:27:21.705Z,82.59
2023-03-03T05:28:22.192Z,70.40
2023-03-03T05:29:22.214Z,69.09
2023-03-03T05:30:22.505Z,82.59
2023-03-03T05:31:22.134Z,74.90
2023-03-03T05:32:22.165Z,73.69
2023-03-03T05:33:21.570Z,74.19
2023-03-03T05:34:22.330Z,75.40
2023-03-03T05:35:22.129Z,80.09
2023-03-03T05:36:22.181Z,72.69
2023-03-03T05:37:21.720Z,70.40
2023-03-03T05:38:21.939Z,73.80
2023-03-03T05:39:21.802Z,75.80
2023-03-03T05:40:21.943Z,71.5
2023-03-03T05:41:21.398Z,75
2023-03-03T05:42:22.219Z,82.90
2023-03-03T05:43:21.830Z,74.80
2023-03-03T05:44:21.207Z,72.19
2023-03-03T05:45:21.702Z,76
2023-03-03T05:46:22.120Z,73.90
2023-03-03T05:47:21.515Z,67.90
2023-03-03T05:48:21.521Z,73.40
2023-03-03T05:49:21.954Z,75.90
2023-03-03T05:50:21.880Z,70.80
2023-03-03T05:51:22.013Z,74.19
2023-03-03T05:52:21.843Z,74.30
2023-03-03T05:53:21.336Z,71.09
2023-03-03T05:54:21.408Z,73.59
2023-03-03T05:55:21.870Z,75.80
2023-03-03T05:56:21.661Z,81
2023-03-03T05:57:21.697Z,74.80
2023-03-03T05:58:21.947Z,71.80
2023-03-03T05:59:21.589Z,76.69
2023-03-03T06:00:22.791Z,70.30
2023-03-03T06:01:22.147Z,74.59
2023-03-03T06:02:22.194Z,75.09
2023-03-03T06:03:22.133Z,76.19
2023-03-03T06:04:22.203Z,80
2023-03-03T06:05:22.394Z,78.80
2023-03-03T06:06:21.939Z,71.40
2023-03-03T06:07:22.074Z,71.19
2023-03-03T06:08:21.263Z,72.19
2023-03-03T06:09:21.785Z,78.5
2023-03-03T06:10:21.627Z,73.5
2023-03-03T06:11:21.972Z,75.69
2023-03-03T06:12:22.178Z,71.69
2023-03-03T06:13:22.284Z,72.40
2023-03-03T06:14:22.514Z,69.69
2023-03-03T06:15:21.648Z,75.09
2023-03-03T06:16:22.190Z,74.5
2023-03-03T06:17:21.935Z,80.69
2023-03-03T06:18:21.839Z,76.30
2023-03-03T06:19:21.431Z,71
2023-03-03T06:20:22.591Z,74.30
2023-03-03T06:21:22.673Z,75.09
2023-03-03T06:22:22.071Z,75.19
2023-03-03T06:23:21.992Z,79.09
2023-03-03T06:24:21.948Z,80.69
2023-03-03T06:25:21.448Z,78.30
2023-03-03T06:26:22.029Z,80.90
2023-03-03T06:27:21.710Z,87.69
2023-03-03T06:28:21.753Z,82.80
2023-03-03T06:29:21.667Z,78.90
2023-03-03T06:30:22.033Z,72.09
2023-03-03T06:31:21.838Z,70
2023-03-03T06:32:21.761Z,66.40
2023-03-03T06:33:21.716Z,61.79
2023-03-03T06:34:21.857Z,65.40
2023-03-03T06:35:21.509Z,63.70
2023-03-03T06:36:21.864Z,70.59
2023-03-03T06:37:21.631Z,63.09
2023-03-03T06:38:21.363Z,61
2023-03-03T06:39:21.880Z,62.20
2023-03-03T06:40:22.213Z,60.20
2023-03-03T06:41:21.526Z,65.69
2023-03-03T06:42:22.048Z,68.30
2023-03-03T06:43:21.658Z,74.40
2023-03-03T06:44:21.770Z,70.40
2023-03-03T06:45:22.504Z,67.19
2023-03-03T06:46:21.980Z,68.30
2023-03-03T06:47:21.298Z,68.40
2023-03-03T06:48:21.733Z,64.69
2023-03-03T06:49:21.716Z,66.59
2023-03-03T06:50:22.015Z,65.5
2023-03-03T06:51:22.497Z,68.80
2023-03-03T06:52:21.449Z,70.90
2023-03-03T06:53:21.976Z,82
2023-03-03T06:54:22.747Z,75.5
2023-03-03T06:55:22.365Z,72.5
2023-03-03T06:56:21.916Z,73.5
2023-03-03T06:57:21.733Z,75.69
2023-03-03T06:58:21.991Z,90.59
2023-03-03T06:59:22.052Z,80.19
2023-03-03T07:00:24.003Z,90.40
2023-03-03T07:01:23.132Z,79.19
2023-03-03T07:02:22.185Z,81.59
2023-03-03T07:03:29.499Z,80.5
2023-03-03T07:04:22.395Z,81.59
2023-03-03T07:05:21.817Z,83.69
2023-03-03T07:06:22.417Z,84
2023-03-03T07:07:22.081Z,81.5
2023-03-03T07:08:22.406Z,86.09
2023-03-03T07:09:21.987Z,94.40
2023-03-03T07:10:22.158Z,86.5
2023-03-03T07:11:21.437Z,90.5
2023-03-03T07:12:21.738Z,84
2023-03-03T07:13:21.402Z,85.30
2023-03-03T07:14:21.957Z,79.90
2023-03-03T07:15:22.300Z,81.5
2023-03-03T07:16:22.108Z,77.90
2023-03-03T07:17:22.099Z,75.59
2023-03-03T07:18:21.062Z,74
2023-03-03T07:19:22.058Z,70.40
2023-03-03T07:20:21.445Z,71.69
2023-03-03T07:21:21.891Z,64.5
2023-03-03T07:22:21.984Z,69.59
2023-03-03T07:23:21.559Z,68.40
2023-03-03T07:24:21.702Z,68
2023-03-03T07:25:22.454Z,64.59
2023-03-03T07:26:21.757Z,64.19
2023-03-03T07:27:21.431Z,70.40
2023-03-03T07:28:21.762Z,71.09
2023-03-03T07:29:22.259Z,66.59
2023-03-03T07:30:21.498Z,65.59
2023-03-03T07:31:21.225Z,69.40
2023-03-03T07:32:22.116Z,63
2023-03-03T07:33:21.632Z,60.5
2023-03-03T07:34:21.269Z,64.30
2023-03-03T07:35:22.178Z,62.59
2023-03-03T07:36:21.582Z,70.40
2023-03-03T07:37:21.322Z,65.90
2023-03-03T07:38:21.468Z,67.69
2023-03-03T07:39:22.064Z,65.5
2023-03-03T07:40:21.949Z,70.30
2023-03-03T07:41:21.555Z,67.30
2023-03-03T07:42:21.918Z,66.59
2023-03-03T07:43:22.105Z,68.90
2023-03-03T07:44:21.916Z,66.5
2023-03-03T07:45:21.983Z,66
2023-03-03T07:46:22.562Z,68.69
2023-03-03T07:47:21.529Z,67.80
2023-03-03T07:48:21.795Z,69.40
2023-03-03T07:49:21.541Z,66.40
2023-03-03T07:50:22.516Z,62.90
2023-03-03T07:51:21.501Z,65.40
2023-03-03T07:52:22.089Z,64.90
2023-03-03T07:53:22.123Z,64.09
2023-03-03T07:54:21.385Z,67.69
2023-03-03T07:55:22.113Z,65.09
2023-03-03T07:56:21.986Z,59
2023-03-03T07:57:21.778Z,61.20
2023-03-03T07:58:21.446Z,58.29
2023-03-03T07:59:22.090Z,59.5
2023-03-03T08:00:22.582Z,60.5
2023-03-03T08:01:22.233Z,61.90
2023-03-03T08:02:22.358Z,65.30
2023-03-03T08:03:22.188Z,62.59
2023-03-03T08:04:22.157Z,63.79
2023-03-03T08:05:22.396Z,61.40
2023-03-03T08:06:21.435Z,63.29
2023-03-03T08:07:22.387Z,63.40
2023-03-03T08:08:22.334Z,63
2023-03-03T08:09:21.399Z,65.69
2023-03-03T08:10:22.351Z,68.5
2023-03-03T08:11:22.322Z,64.09
2023-03-03T08:12:22.321Z,64.40
2023-03-03T08:13:21.906Z,65.09
2023-03-03T08:14:21.409Z,67.80
2023-03-03T08:15:22.045Z,62.79
2023-03-03T08:16:21.507Z,67.69
2023-03-03T08:17:22.254Z,64.59
2023-03-03T08:18:21.883Z,63.90
2023-03-03T08:19:21.278Z,58.90
2023-03-03T08:20:21.891Z,63.20
2023-03-03T08:21:21.467Z,61.40
2023-03-03T08:22:21.824Z,62.5
2023-03-03T08:23:22.380Z,56.79
2023-03-03T08:24:22.400Z,58.40
2023-03-03T08:25:22.241Z,60.20
2023-03-03T08:26:21.587Z,61.59
2023-03-03T08:27:22.309Z,57.70
2023-03-03T08:28:22.046Z,57.79
2023-03-03T08:29:22.088Z,62.90
2023-03-03T08:30:21.892Z,53.79
2023-03-03T08:31:38.469Z,61.90
2023-03-03T08:32:21.820Z,60.59
2023-03-03T08:33:21.900Z,58.40
2023-03-03T08:34:21.307Z,57.79
2023-03-03T08:35:21.469Z,53
2023-03-03T08:36:21.709Z,54.79
2023-03-03T08:37:22.025Z,55.20
2023-03-03T08:38:21.622Z,58.29
2023-03-03T08:39:22.171Z,58.79
2023-03-03T08:40:21.710Z,52.40
2023-03-03T08:41:22.355Z,54.79
2023-03-03T08:42:21.816Z,55.29
2023-03-03T08:43:21.876Z,56.09
2023-03-03T08:44:21.742Z,58.29
2023-03-03T08:45:21.814Z,52.40
2023-03-03T08:46:21.349Z,53.90
2023-03-03T08:47:21.772Z,54.40
2023-03-03T08:48:21.917Z,50.5
2023-03-03T08:49:21.312Z,57.40
2023-03-03T08:50:21.946Z,58.79
2023-03-03T08:51:22.055Z,54.40
2023-03-03T08:52:21.170Z,56.70
2023-03-03T08:53:21.652Z,56.5
2023-03-03T08:54:21.838Z,57.20
2023-03-03T08:55:21.961Z,58.5
2023-03-03T08:56:21.297Z,62.09
2023-03-03T08:57:21.931Z,65.69
2023-03-03T08:58:23.823Z,58.90
2023-03-03T08:59:21.882Z,64
2023-03-03T09:00:22.427Z,60.40
2023-03-03T09:01:22.827Z,68.59
2023-03-03T09:02:21.631Z,60.90
2023-03-03T09:03:21.779Z,63
2023-03-03T09:04:21.699Z,57.40
2023-03-03T09:05:21.550Z,56.5
2023-03-03T09:06:22.488Z,56.20
2023-03-03T09:07:22.226Z,58.79
2023-03-03T09:08:21.809Z,63.59
2023-03-03T09:09:21.968Z,64.30
2023-03-03T09:10:21.988Z,62
2023-03-03T09:11:22.150Z,62.40
2023-03-03T09:12:22.141Z,57.90
2023-03-03T09:13:22.288Z,57.59
2023-03-03T09:14:22.129Z,59.09
2023-03-03T09:15:21.984Z,56.09
2023-03-03T09:16:22.017Z,56.70
2023-03-03T09:17:22.143Z,57.40
2023-03-03T09:18:26.831Z,61
2023-03-03T09:19:21.162Z,62.20
2023-03-03T09:20:21.705Z,72.30
2023-03-03T09:21:21.517Z,70.40
2023-03-03T09:22:21.796Z,74.5
2023-03-03T09:23:21.670Z,74.90
2023-03-03T09:24:22.175Z,78.80
2023-03-03T09:25:22.216Z,73.90
2023-03-03T09:26:21.999Z,75.19
2023-03-03T09:27:22.418Z,68
2023-03-03T09:28:21.389Z,66.40
2023-03-03T09:29:22.032Z,65.5
2023-03-03T09:30:22.098Z,63.70
2023-03-03T09:31:22.303Z,58.90
2023-03-03T09:32:22.242Z,67.59
2023-03-03T09:33:22.091Z,70.19
2023-03-03T09:34:21.747Z,69.69
2023-03-03T09:35:22.520Z,71.09
2023-03-03T09:36:30.228Z,74.40
2023-03-03T09:37:21.710Z,78.69
2023-03-03T09:38:21.936Z,80.40
2023-03-03T09:40:22.066Z,82.59
2023-03-03T09:41:22.018Z,84.09
2023-03-03T09:42:22.105Z,84.80
2023-03-03T09:43:21.974Z,81.30
2023-03-03T09:44:21.387Z,81.80
2023-03-03T09:45:22.709Z,84.40
2023-03-03T09:46:22.226Z,83.09
2023-03-03T09:47:22.376Z,84
2023-03-03T09:48:21.664Z,91.5
2023-03-03T09:49:23.413Z,83.59
2023-03-03T09:50:21.876Z,85.69
2023-03-03T09:51:21.500Z,83.40
2023-03-03T09:52:21.845Z,80.69
2023-03-03T09:53:22.401Z,79.40
2023-03-03T09:54:22.208Z,87.80
2023-03-03T09:55:25.168Z,80.59
2023-03-03T09:56:22.181Z,76.40
2023-03-03T09:57:21.384Z,69.69
2023-03-03T09:58:21.532Z,68.09
2023-03-03T09:59:22.146Z,72.80
2023-03-03T10:00:22.430Z,70.30
2023-03-03T10:01:21.878Z,66.80
2023-03-03T10:02:22.171Z,71.90
2023-03-03T10:03:22.273Z,66.69
2023-03-03T10:04:21.861Z,72.30
2023-03-03T10:05:21.574Z,69.19
2023-03-03T10:06:22.215Z,72.30
2023-03-03T10:07:22.046Z,73.59
2023-03-03T10:08:21.828Z,75
2023-03-03T10:09:22.209Z,76
2023-03-03T10:10:22.511Z,76.90
2023-03-03T10:11:21.880Z,74.40
2023-03-03T10:12:22.105Z,77.40
2023-03-03T10:13:21.730Z,73.90
2023-03-03T10:14:22.188Z,74.19
2023-03-03T10:15:22.121Z,66.30
2023-03-03T10:16:22.105Z,68.69
2023-03-03T10:17:21.666Z,75.5
2023-03-03T10:18:22.271Z,77.40
2023-03-03T10:19:22.246Z,75.09
2023-03-03T10:20:22.878Z,73
2023-03-03T10:21:22.163Z,75.09
2023-03-03T10:22:22.179Z,76.69
2023-03-03T10:23:21.748Z,74.19
2023-03-03T10:24:22.172Z,78
2023-03-03T10:25:21.692Z,78.5
2023-03-03T10:26:29.005Z,77.69
2023-03-03T10:27:22.234Z,80.30
2023-03-03T10:28:21.628Z,80.5
2023-03-03T10:29:22.556Z,69.90
2023-03-03T10:30:38.426Z,69.19
2023-03-03T10:31:28.381Z,70
2023-03-03T10:32:22.828Z,66.80
2023-03-03T10:33:22.593Z,64.80
2023-03-03T10:34:21.971Z,72.19
2023-03-03T10:35:22.067Z,72.40
2023-03-03T10:36:21.743Z,69.69
2023-03-03T10:37:21.793Z,74.40
2023-03-03T10:38:21.863Z,80.69
2023-03-03T10:39:22.056Z,75.59
2023-03-03T10:40:22.310Z,78.90
2023-03-03T10:41:21.962Z,77.40
2023-03-03T10:42:21.674Z,73.59
2023-03-03T10:43:31.045Z,82.30
2023-03-03T10:44:21.905Z,79.30
2023-03-03T10:45:22.268Z,73.59
2023-03-03T10:46:21.496Z,71.40
2023-03-03T10:47:22.396Z,71.80
2023-03-03T10:48:22.144Z,70.59
2023-03-03T10:49:22.213Z,71.59
2023-03-03T10:50:22.519Z,72.69
2023-03-03T10:51:22.099Z,71.5
2023-03-03T10:52:22.082Z,74
2023-03-03T10:53:21.960Z,80.80
2023-03-03T10:54:21.811Z,81.09
2023-03-03T10:55:21.861Z,77.19
2023-03-03T10:56:21.662Z,84
2023-03-03T10:57:21.844Z,82
2023-03-03T10:58:22.030Z,82.30
2023-03-03T11:00:22.930Z,85.40
2023-03-03T11:01:24.489Z,79.69
2023-03-03T11:02:21.855Z,87.19
2023-03-03T11:03:21.275Z,83.30
2023-03-03T11:04:22.489Z,82.19
2023-03-03T11:05:22.949Z,77.19
2023-03-03T11:06:23.099Z,77.80
2023-03-03T11:07:22.307Z,77.09
2023-03-03T11:08:22.752Z,82.19
2023-03-03T11:09:22.453Z,74.19
2023-03-03T11:10:22.092Z,76.40
2023-03-03T11:11:21.601Z,74.5
2023-03-03T11:12:22.775Z,79.90
2023-03-03T11:13:22.067Z,78.30
2023-03-03T11:14:21.900Z,86
2023-03-03T11:15:22.211Z,85.30
2023-03-03T11:16:21.869Z,90.59
2023-03-03T11:17:22.331Z,84
2023-03-03T11:18:25.774Z,81.19
2023-03-03T11:19:22.223Z,77.09
2023-03-03T11:20:22.449Z,83.30
2023-03-03T11:21:22.249Z,75.69
2023-03-03T11:22:21.748Z,79.30
2023-03-03T11:23:22.059Z,85.5
2023-03-03T11:24:24.113Z,87.19
2023-03-03T11:25:22.708Z,81.69
2023-03-03T11:26:21.728Z,82.09
2023-03-03T11:27:23.174Z,81.30
2023-03-03T11:28:22.470Z,79.30
2023-03-03T11:29:21.844Z,82.19
2023-03-03T11:30:22.021Z,79.59
2023-03-03T11:31:21.569Z,78.5
2023-03-03T11:32:22.189Z,81.90
2023-03-03T11:33:21.618Z,77.59
2023-03-03T11:34:21.425Z,68.69
2023-03-03T11:35:21.915Z,76.30
2023-03-03T11:36:21.375Z,75.09
2023-03-03T11:37:21.366Z,72.90
2023-03-03T11:38:21.722Z,71.19
2023-03-03T11:39:22.209Z,72.30
2023-03-03T11:40:21.735Z,70.69
2023-03-03T11:41:21.832Z,67.30
2023-03-03T11:42:23.625Z,63.09
2023-03-03T11:43:35.603Z,64.5
2023-03-03T11:44:21.751Z,57.29
2023-03-03T11:45:22.804Z,64.90
2023-03-03T11:46:21.691Z,61.20
2023-03-03T11:47:21.823Z,58.20
2023-03-03T11:48:21.476Z,49.90
2023-03-03T11:49:21.495Z,54.5
2023-03-03T11:50:22.192Z,51.59
2023-03-03T11:51:20.915Z,51.29
2023-03-03T11:52:21.643Z,51.40
2023-03-03T11:53:21.485Z,50.09
2023-03-03T11:54:21.495Z,49
2023-03-03T11:55:30.131Z,51.70
2023-03-03T11:56:21.390Z,49
2023-03-03T11:57:29.917Z,48.09
2023-03-03T11:58:21.866Z,49.70
2023-03-03T11:59:22.084Z,46.20
2023-03-03T12:00:23.043Z,46.70
2023-03-03T12:01:35.600Z,50.40
2023-03-03T12:02:21.876Z,49.59
2023-03-03T12:03:21.411Z,51.40
2023-03-03T12:04:22.147Z,51.09
2023-03-03T12:05:21.871Z,49.79
2023-03-03T12:06:21.600Z,51.09
2023-03-03T12:07:22.227Z,50.29
2023-03-03T12:08:21.443Z,49.70
2023-03-03T12:09:21.668Z,50.29
2023-03-03T12:10:22.757Z,50.09
2023-03-03T12:11:35.726Z,52.5
2023-03-03T12:12:22.208Z,55.40
2023-03-03T12:13:21.881Z,54.40
2023-03-03T12:14:21.844Z,56.40
2023-03-03T12:15:36.150Z,51.09
2023-03-03T12:16:22.405Z,52.29
2023-03-03T12:17:21.887Z,51.5
2023-03-03T12:18:21.432Z,57.40
2023-03-03T12:19:22.054Z,53.29
2023-03-03T12:20:21.814Z,55.70
2023-03-03T12:21:22.316Z,55.90
2023-03-03T12:22:21.292Z,56.59
2023-03-03T12:23:22.087Z,56.90
2023-03-03T12:24:22.222Z,56.59
2023-03-03T12:25:21.645Z,58.40
2023-03-03T12:26:21.665Z,61.70
2023-03-03T12:27:21.870Z,60.09
2023-03-03T12:28:21.150Z,60.5
2023-03-03T12:29:21.873Z,66.19
2023-03-03T12:30:22.334Z,58.59
2023-03-03T12:31:44.187Z,61.70
2023-03-03T12:32:22.278Z,67.40
2023-03-03T12:33:22.051Z,63.79
2023-03-03T12:34:21.801Z,63.20
2023-03-03T12:35:22.642Z,59.90
2023-03-03T12:36:21.965Z,64
2023-03-03T12:38:23.147Z,61.40
2023-03-03T12:39:34.158Z,58.5
2023-03-03T12:40:22.133Z,68.09
2023-03-03T12:42:23.025Z,66.80
2023-03-03T12:43:21.859Z,62
2023-03-03T12:44:21.634Z,64.90
2023-03-03T12:45:22.164Z,63.70
2023-03-03T12:46:28.502Z,71
2023-03-03T12:47:23.344Z,67.80
2023-03-03T12:48:21.428Z,72.40
2023-03-03T12:49:21.503Z,71.80
2023-03-03T12:50:21.879Z,73.5
2023-03-03T12:51:21.771Z,71.59
2023-03-03T12:52:21.748Z,76.09
2023-03-03T12:53:21.488Z,74.09
2023-03-03T12:54:22.021Z,70.69
2023-03-03T12:55:21.684Z,65.09
2023-03-03T12:56:22.064Z,64.19
2023-03-03T12:57:21.716Z,65
2023-03-03T12:58:22.134Z,63.5
2023-03-03T12:59:22.023Z,69.90
2023-03-03T13:00:23.479Z,63.90
2023-03-03T13:01:22.521Z,63.5
2023-03-03T13:02:21.718Z,66.59
2023-03-03T13:03:22.969Z,63.79
2023-03-03T13:04:21.872Z,63.20
2023-03-03T13:05:22.728Z,62.79
2023-03-03T13:06:21.485Z,64.40
2023-03-03T13:07:21.983Z,63.90
2023-03-03T13:08:22.186Z,57.70
2023-03-03T13:09:22.122Z,57.5
2023-03-03T13:10:21.492Z,62.59
2023-03-03T13:11:22.680Z,63.90
2023-03-03T13:12:22.079Z,61.40
2023-03-03T13:14:23.052Z,63.70
2023-03-03T13:16:31.971Z,64.30